sensor_id;sensor_type;location;lat;lon;timestamp;temperature;humidity
11784;DHT22;5949;40.386;18.150;2022-08-01T00:02:08;26.40;99.90
11784;DHT22;5949;40.386;18.150;2022-08-01T00:04:37;26.30;99.90
11784;DHT22;5949;40.386;18.150;2022-08-01T00:07:04;26.30;99.90
11784;DHT22;5949;40.386;18.150;2022-08-01T00:09:32;26.30;99.90
11784;DHT22;5949;40.386;18.150;2022-08-01T00:11:59;26.30;99.90
11784;DHT22;5949;40.386;18.150;2022-08-01T00:14:28;26.30;99.90
11784;DHT22;5949;40.386;18.150;2022-08-01T00:16:55;26.30;99.90
11784;DHT22;5949;40.386;18.150;2022-08-01T00:19:23;26.40;99.90
11784;DHT22;5949;40.386;18.150;2022-08-01T00:21:52;26.30;99.90
11784;DHT22;5949;40.386;18.150;2022-08-01T00:24:20;26.30;99.90
11784;DHT22;5949;40.386;18.150;2022-08-01T00:26:47;26.30;99.90
11784;DHT22;5949;40.386;18.150;2022-08-01T00:29:15;26.30;99.90
11784;DHT22;5949;40.386;18.150;2022-08-01T00:31:42;26.20;99.90
11784;DHT22;5949;40.386;18.150;2022-08-01T00:34:10;26.20;99.90
11784;DHT22;5949;40.386;18.150;2022-08-01T00:36:38;26.20;99.90
11784;DHT22;5949;40.386;18.150;2022-08-01T00:39:07;26.10;99.90
11784;DHT22;5949;40.386;18.150;2022-08-01T00:41:35;26.10;99.90
11784;DHT22;5949;40.386;18.150;2022-08-01T00:44:03;26.10;99.90
11784;DHT22;5949;40.386;18.150;2022-08-01T00:46:32;26.10;99.90
11784;DHT22;5949;40.386;18.150;2022-08-01T00:49:00;26.10;99.90
11784;DHT22;5949;40.386;18.150;2022-08-01T00:51:28;26.10;99.90
11784;DHT22;5949;40.386;18.150;2022-08-01T00:53:56;26.10;99.90
11784;DHT22;5949;40.386;18.150;2022-08-01T00:56:26;26.10;99.90
11784;DHT22;5949;40.386;18.150;2022-08-01T00:58:55;26.10;99.90
11784;DHT22;5949;40.386;18.150;2022-08-01T01:01:23;26.20;99.90
11784;DHT22;5949;40.386;18.150;2022-08-01T01:03:52;26.20;99.90
11784;DHT22;5949;40.386;18.150;2022-08-01T01:06:28;26.10;99.90
11784;DHT22;5949;40.386;18.150;2022-08-01T01:09:12;26.10;99.90
11784;DHT22;5949;40.386;18.150;2022-08-01T01:11:48;26.10;99.90
11784;DHT22;5949;40.386;18.150;2022-08-01T01:14:26;26.10;99.90
11784;DHT22;5949;40.386;18.150;2022-08-01T01:16:55;26.10;99.90
11784;DHT22;5949;40.386;18.150;2022-08-01T01:19:30;26.10;99.90
11784;DHT22;5949;40.386;18.150;2022-08-01T01:22:13;26.10;99.90
11784;DHT22;5949;40.386;18.150;2022-08-01T01:24:50;26.10;99.90
11784;DHT22;5949;40.386;18.150;2022-08-01T01:27:33;26.10;99.90
11784;DHT22;5949;40.386;18.150;2022-08-01T01:30:05;26.10;99.90
11784;DHT22;5949;40.386;18.150;2022-08-01T01:32:36;26.10;99.90
11784;DHT22;5949;40.386;18.150;2022-08-01T01:35:07;26.10;99.90
11784;DHT22;5949;40.386;18.150;2022-08-01T01:37:39;26.10;99.90
11784;DHT22;5949;40.386;18.150;2022-08-01T01:40:10;26.00;99.90
11784;DHT22;5949;40.386;18.150;2022-08-01T01:42:38;26.00;99.90
11784;DHT22;5949;40.386;18.150;2022-08-01T01:45:08;26.00;99.90
11784;DHT22;5949;40.386;18.150;2022-08-01T01:47:37;26.00;99.90
11784;DHT22;5949;40.386;18.150;2022-08-01T01:50:06;26.00;99.90
11784;DHT22;5949;40.386;18.150;2022-08-01T01:52:35;26.00;99.90
11784;DHT22;5949;40.386;18.150;2022-08-01T01:55:08;26.00;99.90
11784;DHT22;5949;40.386;18.150;2022-08-01T01:57:39;26.00;99.90
11784;DHT22;5949;40.386;18.150;2022-08-01T02:00:11;26.00;99.90
11784;DHT22;5949;40.386;18.150;2022-08-01T02:02:39;26.00;99.90
11784;DHT22;5949;40.386;18.150;2022-08-01T02:05:10;25.90;99.90
11784;DHT22;5949;40.386;18.150;2022-08-01T02:07:39;25.90;99.90
11784;DHT22;5949;40.386;18.150;2022-08-01T02:10:08;25.80;99.90
11784;DHT22;5949;40.386;18.150;2022-08-01T02:12:38;25.80;99.90
11784;DHT22;5949;40.386;18.150;2022-08-01T02:15:10;25.90;99.90
11784;DHT22;5949;40.386;18.150;2022-08-01T02:17:42;25.90;99.90
11784;DHT22;5949;40.386;18.150;2022-08-01T02:20:11;25.90;99.90
11784;DHT22;5949;40.386;18.150;2022-08-01T02:22:42;25.90;99.90
11784;DHT22;5949;40.386;18.150;2022-08-01T02:25:14;25.90;99.90
11784;DHT22;5949;40.386;18.150;2022-08-01T02:27:49;25.90;99.90
11784;DHT22;5949;40.386;18.150;2022-08-01T02:30:20;25.80;99.90
11784;DHT22;5949;40.386;18.150;2022-08-01T02:32:51;25.90;99.90
11784;DHT22;5949;40.386;18.150;2022-08-01T02:35:25;25.80;99.90
11784;DHT22;5949;40.386;18.150;2022-08-01T02:37:55;25.80;99.90
11784;DHT22;5949;40.386;18.150;2022-08-01T02:40:26;25.80;99.90
11784;DHT22;5949;40.386;18.150;2022-08-01T02:42:55;25.80;99.90
11784;DHT22;5949;40.386;18.150;2022-08-01T02:45:26;25.80;99.90
11784;DHT22;5949;40.386;18.150;2022-08-01T02:47:57;25.70;99.90
11784;DHT22;5949;40.386;18.150;2022-08-01T02:50:27;25.80;99.90
11784;DHT22;5949;40.386;18.150;2022-08-01T02:52:57;25.70;99.90
11784;DHT22;5949;40.386;18.150;2022-08-01T02:55:26;25.70;99.90
11784;DHT22;5949;40.386;18.150;2022-08-01T02:57:55;25.80;99.90
11784;DHT22;5949;40.386;18.150;2022-08-01T03:00:25;25.80;99.90
11784;DHT22;5949;40.386;18.150;2022-08-01T03:02:54;25.70;99.90
11784;DHT22;5949;40.386;18.150;2022-08-01T03:05:24;25.70;99.90
11784;DHT22;5949;40.386;18.150;2022-08-01T03:07:55;25.70;99.90
11784;DHT22;5949;40.386;18.150;2022-08-01T03:10:24;25.70;99.90
11784;DHT22;5949;40.386;18.150;2022-08-01T03:12:55;25.70;99.90
11784;DHT22;5949;40.386;18.150;2022-08-01T03:15:26;25.70;99.90
11784;DHT22;5949;40.386;18.150;2022-08-01T03:17:55;25.70;99.90
11784;DHT22;5949;40.386;18.150;2022-08-01T03:20:25;25.70;99.90
11784;DHT22;5949;40.386;18.150;2022-08-01T03:22:54;25.60;99.90
11784;DHT22;5949;40.386;18.150;2022-08-01T03:25:23;25.70;99.90
11784;DHT22;5949;40.386;18.150;2022-08-01T03:27:55;25.60;99.90
11784;DHT22;5949;40.386;18.150;2022-08-01T03:30:27;25.60;99.90
11784;DHT22;5949;40.386;18.150;2022-08-01T03:32:56;25.70;99.90
11784;DHT22;5949;40.386;18.150;2022-08-01T03:35:28;25.60;99.90
11784;DHT22;5949;40.386;18.150;2022-08-01T03:37:57;25.70;99.90
11784;DHT22;5949;40.386;18.150;2022-08-01T03:40:31;25.60;99.90
11784;DHT22;5949;40.386;18.150;2022-08-01T03:43:05;25.60;99.90
11784;DHT22;5949;40.386;18.150;2022-08-01T03:45:38;25.60;99.90
11784;DHT22;5949;40.386;18.150;2022-08-01T03:48:09;25.60;99.90
11784;DHT22;5949;40.386;18.150;2022-08-01T03:50:41;25.60;99.90
11784;DHT22;5949;40.386;18.150;2022-08-01T03:53:09;25.60;99.90
11784;DHT22;5949;40.386;18.150;2022-08-01T03:55:39;25.60;99.90
11784;DHT22;5949;40.386;18.150;2022-08-01T03:58:08;25.70;99.90
11784;DHT22;5949;40.386;18.150;2022-08-01T04:00:38;25.70;99.90
11784;DHT22;5949;40.386;18.150;2022-08-01T04:03:07;25.70;99.90
11784;DHT22;5949;40.386;18.150;2022-08-01T04:05:35;25.70;99.90
11784;DHT22;5949;40.386;18.150;2022-08-01T04:08:03;25.80;99.90
11784;DHT22;5949;40.386;18.150;2022-08-01T04:10:31;25.70;99.90
11784;DHT22;5949;40.386;18.150;2022-08-01T04:12:59;25.70;99.90
11784;DHT22;5949;40.386;18.150;2022-08-01T04:15:27;25.80;99.90
11784;DHT22;5949;40.386;18.150;2022-08-01T04:17:56;25.80;99.90
11784;DHT22;5949;40.386;18.150;2022-08-01T04:20:24;25.90;99.90
11784;DHT22;5949;40.386;18.150;2022-08-01T04:22:52;26.00;99.90
11784;DHT22;5949;40.386;18.150;2022-08-01T04:25:23;26.00;99.90
11784;DHT22;5949;40.386;18.150;2022-08-01T04:27:53;26.10;99.90
11784;DHT22;5949;40.386;18.150;2022-08-01T04:30:25;26.10;99.90
11784;DHT22;5949;40.386;18.150;2022-08-01T04:32:56;26.10;99.90
11784;DHT22;5949;40.386;18.150;2022-08-01T04:35:25;26.20;99.90
11784;DHT22;5949;40.386;18.150;2022-08-01T04:37:54;26.30;99.90
11784;DHT22;5949;40.386;18.150;2022-08-01T04:40:23;26.40;99.90
11784;DHT22;5949;40.386;18.150;2022-08-01T04:42:52;26.30;99.90
11784;DHT22;5949;40.386;18.150;2022-08-01T04:45:20;26.40;99.90
11784;DHT22;5949;40.386;18.150;2022-08-01T04:47:49;26.40;99.90
11784;DHT22;5949;40.386;18.150;2022-08-01T04:50:19;26.40;99.90
11784;DHT22;5949;40.386;18.150;2022-08-01T04:52:48;26.60;99.90
11784;DHT22;5949;40.386;18.150;2022-08-01T04:55:16;26.60;99.90
11784;DHT22;5949;40.386;18.150;2022-08-01T04:57:45;26.60;99.90
11784;DHT22;5949;40.386;18.150;2022-08-01T05:00:14;26.70;99.90
11784;DHT22;5949;40.386;18.150;2022-08-01T05:02:43;26.80;99.90
11784;DHT22;5949;40.386;18.150;2022-08-01T05:05:12;26.70;99.90
11784;DHT22;5949;40.386;18.150;2022-08-01T05:07:42;26.90;99.90
11784;DHT22;5949;40.386;18.150;2022-08-01T05:10:09;26.90;99.90
11784;DHT22;5949;40.386;18.150;2022-08-01T05:12:37;27.00;99.90
11784;DHT22;5949;40.386;18.150;2022-08-01T05:15:06;27.20;99.90
11784;DHT22;5949;40.386;18.150;2022-08-01T05:17:34;27.20;99.90
11784;DHT22;5949;40.386;18.150;2022-08-01T05:20:01;27.20;99.90
11784;DHT22;5949;40.386;18.150;2022-08-01T05:22:29;27.40;99.90
11784;DHT22;5949;40.386;18.150;2022-08-01T05:24:58;27.40;99.90
11784;DHT22;5949;40.386;18.150;2022-08-01T05:27:26;27.50;99.90
11784;DHT22;5949;40.386;18.150;2022-08-01T05:29:54;27.60;99.90
11784;DHT22;5949;40.386;18.150;2022-08-01T05:32:21;27.70;99.90
11784;DHT22;5949;40.386;18.150;2022-08-01T05:34:49;27.80;99.90
11784;DHT22;5949;40.386;18.150;2022-08-01T05:37:17;28.10;99.90
11784;DHT22;5949;40.386;18.150;2022-08-01T05:39:44;28.10;99.90
11784;DHT22;5949;40.386;18.150;2022-08-01T05:42:14;28.40;99.90
11784;DHT22;5949;40.386;18.150;2022-08-01T05:44:41;28.60;99.90
11784;DHT22;5949;40.386;18.150;2022-08-01T05:47:09;28.70;99.90
11784;DHT22;5949;40.386;18.150;2022-08-01T05:49:36;29.00;99.90
11784;DHT22;5949;40.386;18.150;2022-08-01T05:52:04;29.40;99.90
11784;DHT22;5949;40.386;18.150;2022-08-01T05:54:33;29.60;99.90
11784;DHT22;5949;40.386;18.150;2022-08-01T05:57:00;29.70;99.90
11784;DHT22;5949;40.386;18.150;2022-08-01T05:59:30;29.50;99.90
11784;DHT22;5949;40.386;18.150;2022-08-01T06:01:59;30.10;99.90
11784;DHT22;5949;40.386;18.150;2022-08-01T06:04:27;30.10;99.90
11784;DHT22;5949;40.386;18.150;2022-08-01T06:06:54;30.30;99.90
11784;DHT22;5949;40.386;18.150;2022-08-01T06:09:22;30.10;99.90
11784;DHT22;5949;40.386;18.150;2022-08-01T06:11:50;30.10;99.90
11784;DHT22;5949;40.386;18.150;2022-08-01T06:14:17;30.30;99.90
11784;DHT22;5949;40.386;18.150;2022-08-01T06:16:46;30.30;99.90
11784;DHT22;5949;40.386;18.150;2022-08-01T06:19:14;30.20;99.90
11784;DHT22;5949;40.386;18.150;2022-08-01T06:21:42;30.60;99.90
11784;DHT22;5949;40.386;18.150;2022-08-01T06:24:09;30.50;99.90
11784;DHT22;5949;40.386;18.150;2022-08-01T06:26:37;30.70;99.90
11784;DHT22;5949;40.386;18.150;2022-08-01T06:29:04;30.50;99.90
11784;DHT22;5949;40.386;18.150;2022-08-01T06:31:32;30.30;99.90
11784;DHT22;5949;40.386;18.150;2022-08-01T06:34:01;30.30;99.90
11784;DHT22;5949;40.386;18.150;2022-08-01T06:36:29;30.70;99.90
11784;DHT22;5949;40.386;18.150;2022-08-01T06:38:56;30.50;99.90
11784;DHT22;5949;40.386;18.150;2022-08-01T06:41:24;30.70;99.90
11784;DHT22;5949;40.386;18.150;2022-08-01T06:43:51;31.10;99.90
11784;DHT22;5949;40.386;18.150;2022-08-01T06:46:19;31.10;99.90
11784;DHT22;5949;40.386;18.150;2022-08-01T06:48:47;31.20;99.90
11784;DHT22;5949;40.386;18.150;2022-08-01T06:51:16;30.90;99.90
11784;DHT22;5949;40.386;18.150;2022-08-01T06:53:46;30.70;99.90
11784;DHT22;5949;40.386;18.150;2022-08-01T06:56:14;31.10;99.90
11784;DHT22;5949;40.386;18.150;2022-08-01T06:58:41;30.90;99.90
11784;DHT22;5949;40.386;18.150;2022-08-01T07:01:09;30.90;99.90
11784;DHT22;5949;40.386;18.150;2022-08-01T07:03:37;31.00;99.90
11784;DHT22;5949;40.386;18.150;2022-08-01T07:06:05;31.20;99.90
11784;DHT22;5949;40.386;18.150;2022-08-01T07:08:34;30.90;99.90
11784;DHT22;5949;40.386;18.150;2022-08-01T07:11:01;31.10;99.90
11784;DHT22;5949;40.386;18.150;2022-08-01T07:13:29;31.40;99.90
11784;DHT22;5949;40.386;18.150;2022-08-01T07:15:58;31.10;99.90
11784;DHT22;5949;40.386;18.150;2022-08-01T07:18:26;31.30;99.90
11784;DHT22;5949;40.386;18.150;2022-08-01T07:20:53;31.20;99.90
11784;DHT22;5949;40.386;18.150;2022-08-01T07:23:21;31.00;99.90
11784;DHT22;5949;40.386;18.150;2022-08-01T07:25:51;30.80;99.90
11784;DHT22;5949;40.386;18.150;2022-08-01T07:28:19;31.10;99.90
11784;DHT22;5949;40.386;18.150;2022-08-01T07:30:46;31.10;99.90
11784;DHT22;5949;40.386;18.150;2022-08-01T07:33:14;31.10;99.90
11784;DHT22;5949;40.386;18.150;2022-08-01T07:35:42;31.10;99.90
11784;DHT22;5949;40.386;18.150;2022-08-01T07:38:09;31.30;99.90
11784;DHT22;5949;40.386;18.150;2022-08-01T07:40:37;31.40;99.90
11784;DHT22;5949;40.386;18.150;2022-08-01T07:43:06;31.50;99.90
11784;DHT22;5949;40.386;18.150;2022-08-01T07:45:33;31.60;99.90
11784;DHT22;5949;40.386;18.150;2022-08-01T07:48:03;31.30;99.90
11784;DHT22;5949;40.386;18.150;2022-08-01T07:50:30;31.40;99.90
11784;DHT22;5949;40.386;18.150;2022-08-01T07:52:58;31.50;99.20
11784;DHT22;5949;40.386;18.150;2022-08-01T07:55:26;31.50;99.70
11784;DHT22;5949;40.386;18.150;2022-08-01T07:57:53;31.90;99.90
11784;DHT22;5949;40.386;18.150;2022-08-01T08:00:22;32.00;99.90
11784;DHT22;5949;40.386;18.150;2022-08-01T08:02:50;32.40;98.90
11784;DHT22;5949;40.386;18.150;2022-08-01T08:05:18;32.20;98.70
11784;DHT22;5949;40.386;18.150;2022-08-01T08:07:45;31.80;97.30
11784;DHT22;5949;40.386;18.150;2022-08-01T08:10:13;31.40;97.80
11784;DHT22;5949;40.386;18.150;2022-08-01T08:12:40;31.40;98.80
11784;DHT22;5949;40.386;18.150;2022-08-01T08:15:09;31.70;98.30
11784;DHT22;5949;40.386;18.150;2022-08-01T08:17:38;31.40;97.20
11784;DHT22;5949;40.386;18.150;2022-08-01T08:20:07;31.60;98.80
11784;DHT22;5949;40.386;18.150;2022-08-01T08:22:36;31.70;97.30
11784;DHT22;5949;40.386;18.150;2022-08-01T08:25:05;31.30;98.00
11784;DHT22;5949;40.386;18.150;2022-08-01T08:27:33;31.50;96.40
11784;DHT22;5949;40.386;18.150;2022-08-01T08:30:01;31.20;95.80
11784;DHT22;5949;40.386;18.150;2022-08-01T08:32:28;31.40;97.10
11784;DHT22;5949;40.386;18.150;2022-08-01T08:34:57;31.70;97.20
11784;DHT22;5949;40.386;18.150;2022-08-01T08:37:25;31.60;96.20
11784;DHT22;5949;40.386;18.150;2022-08-01T08:40:01;31.50;95.80
11784;DHT22;5949;40.386;18.150;2022-08-01T08:42:29;31.70;95.40
11784;DHT22;5949;40.386;18.150;2022-08-01T08:44:57;31.60;96.30
11784;DHT22;5949;40.386;18.150;2022-08-01T08:47:25;31.50;95.90
11784;DHT22;5949;40.386;18.150;2022-08-01T08:49:57;31.60;96.30
11784;DHT22;5949;40.386;18.150;2022-08-01T08:52:25;31.80;95.90
11784;DHT22;5949;40.386;18.150;2022-08-01T08:54:56;31.70;95.60
11784;DHT22;5949;40.386;18.150;2022-08-01T08:57:24;31.80;95.70
11784;DHT22;5949;40.386;18.150;2022-08-01T08:59:52;31.60;96.50
11784;DHT22;5949;40.386;18.150;2022-08-01T09:02:21;31.50;96.10
11784;DHT22;5949;40.386;18.150;2022-08-01T09:04:49;31.30;96.30
11784;DHT22;5949;40.386;18.150;2022-08-01T09:07:18;31.70;96.20
11784;DHT22;5949;40.386;18.150;2022-08-01T09:09:46;31.50;96.60
11784;DHT22;5949;40.386;18.150;2022-08-01T09:12:16;31.30;95.60
11784;DHT22;5949;40.386;18.150;2022-08-01T09:14:45;31.40;96.50
11784;DHT22;5949;40.386;18.150;2022-08-01T09:17:13;31.60;96.80
11784;DHT22;5949;40.386;18.150;2022-08-01T09:19:43;31.80;94.60
11784;DHT22;5949;40.386;18.150;2022-08-01T09:22:15;31.70;96.30
11784;DHT22;5949;40.386;18.150;2022-08-01T09:24:59;31.80;95.60
11784;DHT22;5949;40.386;18.150;2022-08-01T09:27:27;31.80;95.50
11784;DHT22;5949;40.386;18.150;2022-08-01T09:30:07;31.70;95.00
11784;DHT22;5949;40.386;18.150;2022-08-01T09:32:35;31.40;95.50
11784;DHT22;5949;40.386;18.150;2022-08-01T09:35:25;31.40;94.90
11784;DHT22;5949;40.386;18.150;2022-08-01T09:38:12;31.50;94.60
11784;DHT22;5949;40.386;18.150;2022-08-01T09:40:50;31.40;94.20
11784;DHT22;5949;40.386;18.150;2022-08-01T09:43:18;31.50;93.70
11784;DHT22;5949;40.386;18.150;2022-08-01T09:45:47;31.70;93.70
11784;DHT22;5949;40.386;18.150;2022-08-01T09:48:15;31.40;94.20
11784;DHT22;5949;40.386;18.150;2022-08-01T09:50:43;31.50;93.30
11784;DHT22;5949;40.386;18.150;2022-08-01T09:53:12;31.60;92.90
11784;DHT22;5949;40.386;18.150;2022-08-01T09:55:41;31.50;92.40
11784;DHT22;5949;40.386;18.150;2022-08-01T09:58:12;31.30;93.20
11784;DHT22;5949;40.386;18.150;2022-08-01T10:00:40;31.10;92.30
11784;DHT22;5949;40.386;18.150;2022-08-01T10:03:20;31.50;91.60
11784;DHT22;5949;40.386;18.150;2022-08-01T10:05:48;31.80;90.80
11784;DHT22;5949;40.386;18.150;2022-08-01T10:08:16;31.20;89.20
11784;DHT22;5949;40.386;18.150;2022-08-01T10:11:05;31.60;89.40
11784;DHT22;5949;40.386;18.150;2022-08-01T10:13:35;31.40;87.30
11784;DHT22;5949;40.386;18.150;2022-08-01T10:16:04;31.60;90.40
11784;DHT22;5949;40.386;18.150;2022-08-01T10:18:34;31.70;90.30
11784;DHT22;5949;40.386;18.150;2022-08-01T10:21:03;31.40;90.00
11784;DHT22;5949;40.386;18.150;2022-08-01T10:23:34;31.70;89.80
11784;DHT22;5949;40.386;18.150;2022-08-01T10:26:03;31.90;90.70
11784;DHT22;5949;40.386;18.150;2022-08-01T10:28:36;31.50;84.30
11784;DHT22;5949;40.386;18.150;2022-08-01T10:31:04;31.50;84.70
11784;DHT22;5949;40.386;18.150;2022-08-01T10:33:33;31.40;85.00
11784;DHT22;5949;40.386;18.150;2022-08-01T10:36:02;31.30;84.70
11784;DHT22;5949;40.386;18.150;2022-08-01T10:38:30;31.40;83.80
11784;DHT22;5949;40.386;18.150;2022-08-01T10:40:59;31.40;88.00
11784;DHT22;5949;40.386;18.150;2022-08-01T10:43:29;31.50;89.00
11784;DHT22;5949;40.386;18.150;2022-08-01T10:45:58;31.40;88.90
11784;DHT22;5949;40.386;18.150;2022-08-01T10:48:31;31.50;84.70
11784;DHT22;5949;40.386;18.150;2022-08-01T10:51:03;31.50;85.50
11784;DHT22;5949;40.386;18.150;2022-08-01T10:53:31;31.70;84.70
11784;DHT22;5949;40.386;18.150;2022-08-01T10:56:01;31.70;82.80
11784;DHT22;5949;40.386;18.150;2022-08-01T10:58:31;31.50;81.90
11784;DHT22;5949;40.386;18.150;2022-08-01T11:01:23;31.70;82.20
11784;DHT22;5949;40.386;18.150;2022-08-01T11:04:02;31.70;80.50
11784;DHT22;5949;40.386;18.150;2022-08-01T11:06:40;31.20;82.10
11784;DHT22;5949;40.386;18.150;2022-08-01T11:09:27;31.40;81.40
11784;DHT22;5949;40.386;18.150;2022-08-01T11:12:00;31.30;82.10
11784;DHT22;5949;40.386;18.150;2022-08-01T11:14:30;31.10;84.00
11784;DHT22;5949;40.386;18.150;2022-08-01T11:20:07;31.20;78.40
11784;DHT22;5949;40.386;18.150;2022-08-01T11:26:11;31.10;82.60
11784;DHT22;5949;40.386;18.150;2022-08-01T11:29:21;31.10;84.10
11784;DHT22;5949;40.386;18.150;2022-08-01T11:32:23;31.30;83.70
11784;DHT22;5949;40.386;18.150;2022-08-01T11:34:56;31.50;79.00
11784;DHT22;5949;40.386;18.150;2022-08-01T11:37:26;31.30;77.50
11784;DHT22;5949;40.386;18.150;2022-08-01T11:40:15;31.40;76.90
11784;DHT22;5949;40.386;18.150;2022-08-01T11:42:43;31.20;80.10
11784;DHT22;5949;40.386;18.150;2022-08-01T11:45:10;31.40;75.10
11784;DHT22;5949;40.386;18.150;2022-08-01T11:47:46;31.50;77.90
11784;DHT22;5949;40.386;18.150;2022-08-01T11:50:40;31.40;73.70
11784;DHT22;5949;40.386;18.150;2022-08-01T11:53:10;31.70;68.20
11784;DHT22;5949;40.386;18.150;2022-08-01T11:55:45;31.50;73.20
11784;DHT22;5949;40.386;18.150;2022-08-01T11:58:15;31.70;72.80
11784;DHT22;5949;40.386;18.150;2022-08-01T12:00:50;31.70;72.00
11784;DHT22;5949;40.386;18.150;2022-08-01T12:03:24;31.50;74.60
11784;DHT22;5949;40.386;18.150;2022-08-01T12:05:53;31.20;73.70
11784;DHT22;5949;40.386;18.150;2022-08-01T12:08:30;31.40;71.20
11784;DHT22;5949;40.386;18.150;2022-08-01T12:10:59;31.30;70.50
11784;DHT22;5949;40.386;18.150;2022-08-01T12:13:27;31.40;74.90
11784;DHT22;5949;40.386;18.150;2022-08-01T12:15:56;31.70;75.80
11784;DHT22;5949;40.386;18.150;2022-08-01T12:18:24;31.30;78.60
11784;DHT22;5949;40.386;18.150;2022-08-01T12:21:02;31.40;79.70
11784;DHT22;5949;40.386;18.150;2022-08-01T12:23:32;31.40;81.60
11784;DHT22;5949;40.386;18.150;2022-08-01T12:25:59;31.30;83.60
11784;DHT22;5949;40.386;18.150;2022-08-01T12:28:27;31.20;85.20
11784;DHT22;5949;40.386;18.150;2022-08-01T12:30:55;31.20;83.60
11784;DHT22;5949;40.386;18.150;2022-08-01T12:33:22;31.30;84.40
11784;DHT22;5949;40.386;18.150;2022-08-01T12:35:50;31.30;85.80
11784;DHT22;5949;40.386;18.150;2022-08-01T12:38:20;31.30;85.80
11784;DHT22;5949;40.386;18.150;2022-08-01T12:40:50;31.20;82.50
11784;DHT22;5949;40.386;18.150;2022-08-01T12:43:19;31.00;86.20
11784;DHT22;5949;40.386;18.150;2022-08-01T12:45:48;31.30;85.70
11784;DHT22;5949;40.386;18.150;2022-08-01T12:48:17;31.40;83.40
11784;DHT22;5949;40.386;18.150;2022-08-01T12:50:47;31.50;83.50
11784;DHT22;5949;40.386;18.150;2022-08-01T12:53:15;31.50;85.80
11784;DHT22;5949;40.386;18.150;2022-08-01T12:55:46;31.60;87.90
11784;DHT22;5949;40.386;18.150;2022-08-01T12:58:16;31.50;87.60
11784;DHT22;5949;40.386;18.150;2022-08-01T13:00:45;31.40;89.60
11784;DHT22;5949;40.386;18.150;2022-08-01T13:03:14;31.40;91.50
11784;DHT22;5949;40.386;18.150;2022-08-01T13:05:44;31.50;90.70
11784;DHT22;5949;40.386;18.150;2022-08-01T13:08:13;31.40;92.10
11784;DHT22;5949;40.386;18.150;2022-08-01T13:10:41;31.20;91.10
11784;DHT22;5949;40.386;18.150;2022-08-01T13:13:10;31.20;90.60
11784;DHT22;5949;40.386;18.150;2022-08-01T13:15:40;31.20;87.60
11784;DHT22;5949;40.386;18.150;2022-08-01T13:18:25;31.30;82.20
11784;DHT22;5949;40.386;18.150;2022-08-01T13:21:08;31.20;79.20
11784;DHT22;5949;40.386;18.150;2022-08-01T13:23:37;31.00;81.80
11784;DHT22;5949;40.386;18.150;2022-08-01T13:26:05;31.20;82.40
11784;DHT22;5949;40.386;18.150;2022-08-01T13:28:33;31.20;80.40
11784;DHT22;5949;40.386;18.150;2022-08-01T13:31:05;31.40;78.40
11784;DHT22;5949;40.386;18.150;2022-08-01T13:33:43;31.40;80.20
11784;DHT22;5949;40.386;18.150;2022-08-01T13:36:11;31.50;78.00
11784;DHT22;5949;40.386;18.150;2022-08-01T13:38:39;31.50;75.90
11784;DHT22;5949;40.386;18.150;2022-08-01T13:41:24;31.30;76.10
11784;DHT22;5949;40.386;18.150;2022-08-01T13:43:52;31.30;75.60
11784;DHT22;5949;40.386;18.150;2022-08-01T13:46:21;31.30;78.40
11784;DHT22;5949;40.386;18.150;2022-08-01T13:48:48;31.00;79.40
11784;DHT22;5949;40.386;18.150;2022-08-01T13:51:16;31.10;78.90
11784;DHT22;5949;40.386;18.150;2022-08-01T13:53:43;31.30;78.90
11784;DHT22;5949;40.386;18.150;2022-08-01T13:56:11;31.10;77.70
11784;DHT22;5949;40.386;18.150;2022-08-01T13:58:38;31.10;78.20
11784;DHT22;5949;40.386;18.150;2022-08-01T14:01:06;31.10;78.40
11784;DHT22;5949;40.386;18.150;2022-08-01T14:03:35;31.30;77.40
11784;DHT22;5949;40.386;18.150;2022-08-01T14:06:03;31.50;76.90
11784;DHT22;5949;40.386;18.150;2022-08-01T14:08:30;31.40;83.40
11784;DHT22;5949;40.386;18.150;2022-08-01T14:10:58;31.40;85.00
11784;DHT22;5949;40.386;18.150;2022-08-01T14:13:26;31.20;84.30
11784;DHT22;5949;40.386;18.150;2022-08-01T14:15:54;31.20;85.60
11784;DHT22;5949;40.386;18.150;2022-08-01T14:18:21;31.10;84.70
11784;DHT22;5949;40.386;18.150;2022-08-01T14:20:50;31.30;84.90
11784;DHT22;5949;40.386;18.150;2022-08-01T14:23:18;31.20;85.00
11784;DHT22;5949;40.386;18.150;2022-08-01T14:25:45;31.40;83.60
11784;DHT22;5949;40.386;18.150;2022-08-01T14:28:13;31.30;81.20
11784;DHT22;5949;40.386;18.150;2022-08-01T14:30:40;31.00;83.90
11784;DHT22;5949;40.386;18.150;2022-08-01T14:33:09;31.00;79.10
11784;DHT22;5949;40.386;18.150;2022-08-01T14:35:36;31.10;78.30
11784;DHT22;5949;40.386;18.150;2022-08-01T14:38:05;31.00;79.20
11784;DHT22;5949;40.386;18.150;2022-08-01T14:40:33;30.80;83.20
11784;DHT22;5949;40.386;18.150;2022-08-01T14:43:01;30.80;84.40
11784;DHT22;5949;40.386;18.150;2022-08-01T14:45:28;30.70;84.70
11784;DHT22;5949;40.386;18.150;2022-08-01T14:47:56;30.90;82.00
11784;DHT22;5949;40.386;18.150;2022-08-01T14:50:23;31.20;84.80
11784;DHT22;5949;40.386;18.150;2022-08-01T14:52:52;31.10;87.50
11784;DHT22;5949;40.386;18.150;2022-08-01T14:55:22;30.90;89.40
11784;DHT22;5949;40.386;18.150;2022-08-01T14:57:52;30.90;90.80
11784;DHT22;5949;40.386;18.150;2022-08-01T15:00:20;30.80;90.10
11784;DHT22;5949;40.386;18.150;2022-08-01T15:02:47;30.80;91.00
11784;DHT22;5949;40.386;18.150;2022-08-01T15:05:15;30.70;91.50
11784;DHT22;5949;40.386;18.150;2022-08-01T15:07:43;30.70;91.70
11784;DHT22;5949;40.386;18.150;2022-08-01T15:10:11;30.70;91.30
11784;DHT22;5949;40.386;18.150;2022-08-01T15:12:50;30.70;85.40
11784;DHT22;5949;40.386;18.150;2022-08-01T15:15:18;30.70;85.50
11784;DHT22;5949;40.386;18.150;2022-08-01T15:17:46;30.50;88.10
11784;DHT22;5949;40.386;18.150;2022-08-01T15:20:14;30.50;88.80
11784;DHT22;5949;40.386;18.150;2022-08-01T15:22:41;30.70;86.50
11784;DHT22;5949;40.386;18.150;2022-08-01T15:25:09;30.60;86.40
11784;DHT22;5949;40.386;18.150;2022-08-01T15:27:37;30.50;88.50
11784;DHT22;5949;40.386;18.150;2022-08-01T15:30:07;30.40;88.50
11784;DHT22;5949;40.386;18.150;2022-08-01T15:32:34;30.40;88.40
11784;DHT22;5949;40.386;18.150;2022-08-01T15:35:02;30.40;87.70
11784;DHT22;5949;40.386;18.150;2022-08-01T15:37:30;30.50;89.40
11784;DHT22;5949;40.386;18.150;2022-08-01T15:39:58;30.20;91.40
11784;DHT22;5949;40.386;18.150;2022-08-01T15:42:25;30.20;91.50
11784;DHT22;5949;40.386;18.150;2022-08-01T15:44:53;30.10;89.70
11784;DHT22;5949;40.386;18.150;2022-08-01T15:47:22;30.40;90.50
11784;DHT22;5949;40.386;18.150;2022-08-01T15:49:49;30.50;91.80
11784;DHT22;5949;40.386;18.150;2022-08-01T15:52:17;30.30;92.90
11784;DHT22;5949;40.386;18.150;2022-08-01T15:54:44;30.60;91.50